PWSweather.com
Personal Weather Stations
Station Observations
NAGEO265NE
Bedzin GrodziecPL 42-506

Bedzin GrodziecPL 42-506

Lat: 50.347, Lon: 19.079

Elevation: 948

Station Type: WH1080

http://www.meteo-grodziec.pl/

High Low Average
Temperature 33.1°F0.6°C 18.1°F-7.7°C 25.3°F-3.7°C
Dew Point 17.6°F-8.0°C 13.3°F-10.4°C 15.2°F-9.3°C
Winds 4.0 mph 6.4 kmh Calm Calm 1.0 mph NE1.6 kmh NE
Wind Gusts 10.0 mph16.1 kmh -- 4.0 mph6.4 kmh
Humidity 84% 46% 67%
Pressure 30.91 in1046.7 mb 30.79 in1042.7 mb -
Precipitation 0.00 in0.0 mm - -
Hour Temp Dew Point Humidity Winds Wind Gusts Pressure Precip Precip Rate Daily Precip Total
12:00 AM 20.1°F-6.6°C 14.2°F-9.9°C 77% 1.0 mph N1.6 kmh N 3.0 mph4.8 kmh 30.81 in1043.3 mb 0.00 in0.0 mm 0.00 in0.0 mm 0.00 in0.0 mm
12:05 AM 20.3°F-6.5°C 14.5°F-9.7°C 78% 1.0 mph N1.6 kmh N 3.0 mph4.8 kmh 30.81 in1043.3 mb 0.00 in0.0 mm 0.00 in0.0 mm 0.00 in0.0 mm
12:10 AM 20.1°F-6.6°C 14.4°F-9.8°C 78% 1.0 mph N1.6 kmh N 3.0 mph4.8 kmh 30.81 in1043.3 mb 0.00 in0.0 mm 0.00 in0.0 mm 0.00 in0.0 mm
12:15 AM 20.1°F-6.6°C 14.4°F-9.8°C 78% Calm Calm 2.0 mph3.2 kmh 30.81 in1043.3 mb 0.00 in0.0 mm 0.00 in0.0 mm 0.00 in0.0 mm
12:20 AM 20.1°F-6.6°C 14.4°F-9.8°C 78% Calm Calm 3.0 mph4.8 kmh 30.81 in1043.3 mb 0.00 in0.0 mm 0.00 in0.0 mm 0.00 in0.0 mm
12:25 AM 20.1°F-6.6°C 14.4°F-9.8°C 78% 1.0 mph N1.6 kmh N 5.0 mph8.0 kmh 30.82 in1043.7 mb 0.00 in0.0 mm 0.00 in0.0 mm 0.00 in0.0 mm
12:30 AM 20.1°F-6.6°C 14.4°F-9.8°C 78% 1.0 mph N1.6 kmh N 5.0 mph8.0 kmh 30.81 in1043.3 mb 0.00 in0.0 mm 0.00 in0.0 mm 0.00 in0.0 mm
12:35 AM 20.3°F-6.5°C 14.9°F-9.5°C 79% 1.0 mph N1.6 kmh N 5.0 mph8.0 kmh 30.81 in1043.3 mb 0.00 in0.0 mm 0.00 in0.0 mm 0.00 in0.0 mm
12:40 AM 20.3°F-6.5°C 14.5°F-9.7°C 78% 2.0 mph N3.2 kmh N 5.0 mph8.0 kmh 30.81 in1043.3 mb 0.00 in0.0 mm 0.00 in0.0 mm 0.00 in0.0 mm
12:45 AM 20.1°F-6.6°C 14.4°F-9.8°C 78% 1.0 mph N1.6 kmh N 5.0 mph8.0 kmh 30.81 in1043.3 mb 0.00 in0.0 mm 0.00 in0.0 mm 0.00 in0.0 mm
12:50 AM 20.1°F-6.6°C 14.4°F-9.8°C 78% 1.0 mph N1.6 kmh N 5.0 mph8.0 kmh 30.82 in1043.7 mb 0.00 in0.0 mm 0.00 in0.0 mm 0.00 in0.0 mm
12:55 AM 20.1°F-6.6°C 14.4°F-9.8°C 78% 1.0 mph N1.6 kmh N 4.0 mph6.4 kmh 30.82 in1043.7 mb 0.00 in0.0 mm 0.00 in0.0 mm 0.00 in0.0 mm
01:00 AM 20.1°F-6.6°C 14.4°F-9.8°C 78% 1.0 mph N1.6 kmh N 4.0 mph6.4 kmh 30.82 in1043.7 mb 0.00 in0.0 mm 0.00 in0.0 mm 0.00 in0.0 mm
01:05 AM 20.1°F-6.6°C 14.4°F-9.8°C 78% 1.0 mph N1.6 kmh N 4.0 mph6.4 kmh 30.82 in1043.7 mb 0.00 in0.0 mm 0.00 in0.0 mm 0.00 in0.0 mm
01:10 AM 20.1°F-6.6°C 14.4°F-9.8°C 78% 1.0 mph NNE1.6 kmh NNE 4.0 mph6.4 kmh 30.82 in1043.7 mb 0.00 in0.0 mm 0.00 in0.0 mm 0.00 in0.0 mm
01:15 AM 20.1°F-6.6°C 14.4°F-9.8°C 78% 1.0 mph NNE1.6 kmh NNE 4.0 mph6.4 kmh 30.82 in1043.7 mb 0.00 in0.0 mm 0.00 in0.0 mm 0.00 in0.0 mm
01:20 AM 20.1°F-6.6°C 14.4°F-9.8°C 78% 1.0 mph N1.6 kmh N 5.0 mph8.0 kmh 30.82 in1043.7 mb 0.00 in0.0 mm 0.00 in0.0 mm 0.00 in0.0 mm
01:25 AM 20.1°F-6.6°C 14.4°F-9.8°C 78% 1.0 mph N1.6 kmh N 5.0 mph8.0 kmh 30.81 in1043.3 mb 0.00 in0.0 mm 0.00 in0.0 mm 0.00 in0.0 mm
01:30 AM 20.1°F-6.6°C 14.4°F-9.8°C 78% 1.0 mph N1.6 kmh N 6.0 mph9.7 kmh 30.82 in1043.7 mb 0.00 in0.0 mm 0.00 in0.0 mm 0.00 in0.0 mm
01:35 AM 20.3°F-6.5°C 14.5°F-9.7°C 78% 2.0 mph NNE3.2 kmh NNE 6.0 mph9.7 kmh 30.82 in1043.7 mb 0.00 in0.0 mm 0.00 in0.0 mm 0.00 in0.0 mm
01:40 AM 20.3°F-6.5°C 14.2°F-9.9°C 77% 2.0 mph NNE3.2 kmh NNE 6.0 mph9.7 kmh 30.82 in1043.7 mb 0.00 in0.0 mm 0.00 in0.0 mm 0.00 in0.0 mm
01:45 AM 20.1°F-6.6°C 14.2°F-9.9°C 77% 2.0 mph N3.2 kmh N 6.0 mph9.7 kmh 30.82 in1043.7 mb 0.00 in0.0 mm 0.00 in0.0 mm 0.00 in0.0 mm
01:50 AM 20.5°F-6.4°C 14.4°F-9.8°C 77% 2.0 mph N3.2 kmh N 6.0 mph9.7 kmh 30.82 in1043.7 mb 0.00 in0.0 mm 0.00 in0.0 mm 0.00 in0.0 mm
01:55 AM 20.3°F-6.5°C 14.2°F-9.9°C 77% 2.0 mph NNE3.2 kmh NNE 6.0 mph9.7 kmh 30.82 in1043.7 mb 0.00 in0.0 mm 0.00 in0.0 mm 0.00 in0.0 mm
02:00 AM 20.3°F-6.5°C 14.2°F-9.9°C 77% 2.0 mph NNE3.2 kmh NNE 9.0 mph14.5 kmh 30.82 in1043.7 mb 0.00 in0.0 mm 0.00 in0.0 mm 0.00 in0.0 mm
02:05 AM 20.5°F-6.4°C 14.4°F-9.8°C 77% 2.0 mph NNE3.2 kmh NNE 9.0 mph14.5 kmh 30.82 in1043.7 mb 0.00 in0.0 mm 0.00 in0.0 mm 0.00 in0.0 mm
02:10 AM 20.3°F-6.5°C 14.2°F-9.9°C 77% 2.0 mph NNE3.2 kmh NNE 5.0 mph8.0 kmh 30.82 in1043.7 mb 0.00 in0.0 mm 0.00 in0.0 mm 0.00 in0.0 mm
02:15 AM 20.5°F-6.4°C 14.4°F-9.8°C 77% 2.0 mph NNE3.2 kmh NNE 6.0 mph9.7 kmh 30.82 in1043.7 mb 0.00 in0.0 mm 0.00 in0.0 mm 0.00 in0.0 mm
02:20 AM 20.5°F-6.4°C 14.4°F-9.8°C 77% 2.0 mph NNE3.2 kmh NNE 7.0 mph11.3 kmh 30.82 in1043.7 mb 0.00 in0.0 mm 0.00 in0.0 mm 0.00 in0.0 mm
02:25 AM 20.3°F-6.5°C 14.2°F-9.9°C 77% 1.0 mph NNE1.6 kmh NNE 7.0 mph11.3 kmh 30.82 in1043.7 mb 0.00 in0.0 mm 0.00 in0.0 mm 0.00 in0.0 mm
02:30 AM 20.3°F-6.5°C 14.2°F-9.9°C 77% 1.0 mph NNE1.6 kmh NNE 4.0 mph6.4 kmh 30.82 in1043.7 mb 0.00 in0.0 mm 0.00 in0.0 mm 0.00 in0.0 mm
02:35 AM 20.1°F-6.6°C 14.2°F-9.9°C 77% 1.0 mph NNE1.6 kmh NNE 5.0 mph8.0 kmh 30.82 in1043.7 mb 0.00 in0.0 mm 0.00 in0.0 mm 0.00 in0.0 mm
02:40 AM 20.1°F-6.6°C 14.2°F-9.9°C 77% 1.0 mph NNE1.6 kmh NNE 5.0 mph8.0 kmh 30.82 in1043.7 mb 0.00 in0.0 mm 0.00 in0.0 mm 0.00 in0.0 mm
02:45 AM 20.1°F-6.6°C 14.2°F-9.9°C 77% 1.0 mph NE1.6 kmh NE 5.0 mph8.0 kmh 30.82 in1043.7 mb 0.00 in0.0 mm 0.00 in0.0 mm 0.00 in0.0 mm
02:50 AM 20.1°F-6.6°C 14.2°F-9.9°C 77% 1.0 mph NE1.6 kmh NE 5.0 mph8.0 kmh 30.83 in1044.0 mb 0.00 in0.0 mm 0.00 in0.0 mm 0.00 in0.0 mm
02:55 AM 20.1°F-6.6°C 14.0°F-10.0°C 77% 1.0 mph NE1.6 kmh NE 6.0 mph9.7 kmh 30.82 in1043.7 mb 0.00 in0.0 mm 0.00 in0.0 mm 0.00 in0.0 mm
03:00 AM 20.1°F-6.6°C 14.0°F-10.0°C 77% 1.0 mph NNE1.6 kmh NNE 6.0 mph9.7 kmh 30.83 in1044.0 mb 0.00 in0.0 mm 0.00 in0.0 mm 0.00 in0.0 mm
03:05 AM 20.1°F-6.6°C 14.4°F-9.8°C 78% 1.0 mph NNE1.6 kmh NNE 6.0 mph9.7 kmh 30.83 in1044.0 mb 0.00 in0.0 mm 0.00 in0.0 mm 0.00 in0.0 mm
03:10 AM 19.9°F-6.7°C 14.2°F-9.9°C 78% 1.0 mph NNE1.6 kmh NNE 4.0 mph6.4 kmh 30.83 in1044.0 mb 0.00 in0.0 mm 0.00 in0.0 mm 0.00 in0.0 mm
03:15 AM 19.9°F-6.7°C 14.2°F-9.9°C 78% 1.0 mph NNE1.6 kmh NNE 7.0 mph11.3 kmh 30.83 in1044.0 mb 0.00 in0.0 mm 0.00 in0.0 mm 0.00 in0.0 mm
03:20 AM 19.8°F-6.8°C 14.0°F-10.0°C 78% 2.0 mph N3.2 kmh N 7.0 mph11.3 kmh 30.83 in1044.0 mb 0.00 in0.0 mm 0.00 in0.0 mm 0.00 in0.0 mm
03:25 AM 19.8°F-6.8°C 14.2°F-9.9°C 79% 2.0 mph N3.2 kmh N 6.0 mph9.7 kmh 30.84 in1044.4 mb 0.00 in0.0 mm 0.00 in0.0 mm 0.00 in0.0 mm
03:30 AM 19.6°F-6.9°C 14.2°F-9.9°C 79% 2.0 mph N3.2 kmh N 6.0 mph9.7 kmh 30.83 in1044.0 mb 0.00 in0.0 mm 0.00 in0.0 mm 0.00 in0.0 mm
03:35 AM 19.6°F-6.9°C 14.4°F-9.8°C 80% 1.0 mph N1.6 kmh N 5.0 mph8.0 kmh 30.83 in1044.0 mb 0.00 in0.0 mm 0.00 in0.0 mm 0.00 in0.0 mm
03:40 AM 19.4°F-7.0°C 14.2°F-9.9°C 80% 1.0 mph NNE1.6 kmh NNE 8.0 mph12.9 kmh 30.83 in1044.0 mb 0.00 in0.0 mm 0.00 in0.0 mm 0.00 in0.0 mm
03:45 AM 19.4°F-7.0°C 14.2°F-9.9°C 80% 2.0 mph NNE3.2 kmh NNE 8.0 mph12.9 kmh 30.83 in1044.0 mb 0.00 in0.0 mm 0.00 in0.0 mm 0.00 in0.0 mm
03:50 AM 19.4°F-7.0°C 14.5°F-9.7°C 81% 2.0 mph NNE3.2 kmh NNE 6.0 mph9.7 kmh 30.83 in1044.0 mb 0.00 in0.0 mm 0.00 in0.0 mm 0.00 in0.0 mm
03:55 AM 19.4°F-7.0°C 14.5°F-9.7°C 81% 1.0 mph NNE1.6 kmh NNE 6.0 mph9.7 kmh 30.83 in1044.0 mb 0.00 in0.0 mm 0.00 in0.0 mm 0.00 in0.0 mm
04:00 AM 19.4°F-7.0°C 14.5°F-9.7°C 81% 1.0 mph NE1.6 kmh NE 6.0 mph9.7 kmh 30.83 in1044.0 mb 0.00 in0.0 mm 0.00 in0.0 mm 0.00 in0.0 mm
04:05 AM 19.6°F-6.9°C 14.5°F-9.7°C 81% 2.0 mph NE3.2 kmh NE 6.0 mph9.7 kmh 30.83 in1044.0 mb 0.00 in0.0 mm 0.00 in0.0 mm 0.00 in0.0 mm
04:10 AM 19.6°F-6.9°C 14.5°F-9.7°C 81% 2.0 mph NE3.2 kmh NE 5.0 mph8.0 kmh 30.83 in1044.0 mb 0.00 in0.0 mm 0.00 in0.0 mm 0.00 in0.0 mm
04:15 AM 19.4°F-7.0°C 14.2°F-9.9°C 80% 1.0 mph NE1.6 kmh NE 4.0 mph6.4 kmh 30.83 in1044.0 mb 0.00 in0.0 mm 0.00 in0.0 mm 0.00 in0.0 mm
04:20 AM 19.4°F-7.0°C 14.2°F-9.9°C 80% 1.0 mph NE1.6 kmh NE 4.0 mph6.4 kmh 30.83 in1044.0 mb 0.00 in0.0 mm 0.00 in0.0 mm 0.00 in0.0 mm
04:25 AM 19.4°F-7.0°C 14.2°F-9.9°C 80% 1.0 mph NE1.6 kmh NE 5.0 mph8.0 kmh 30.83 in1044.0 mb 0.00 in0.0 mm 0.00 in0.0 mm 0.00 in0.0 mm
04:30 AM 19.6°F-6.9°C 14.4°F-9.8°C 80% 1.0 mph NE1.6 kmh NE 6.0 mph9.7 kmh 30.83 in1044.0 mb 0.00 in0.0 mm 0.00 in0.0 mm 0.00 in0.0 mm
04:35 AM 19.6°F-6.9°C 14.4°F-9.8°C 80% 1.0 mph NE1.6 kmh NE 6.0 mph9.7 kmh 30.83 in1044.0 mb 0.00 in0.0 mm 0.00 in0.0 mm 0.00 in0.0 mm
04:40 AM 19.4°F-7.0°C 14.2°F-9.9°C 80% 2.0 mph NE3.2 kmh NE 6.0 mph9.7 kmh 30.83 in1044.0 mb 0.00 in0.0 mm 0.00 in0.0 mm 0.00 in0.0 mm
04:45 AM 19.4°F-7.0°C 14.2°F-9.9°C 80% 1.0 mph NE1.6 kmh NE 6.0 mph9.7 kmh 30.82 in1043.7 mb 0.00 in0.0 mm 0.00 in0.0 mm 0.00 in0.0 mm
04:50 AM 19.2°F-7.1°C 14.2°F-9.9°C 80% 2.0 mph NE3.2 kmh NE 6.0 mph9.7 kmh 30.82 in1043.7 mb 0.00 in0.0 mm 0.00 in0.0 mm 0.00 in0.0 mm
04:55 AM 19.2°F-7.1°C 14.4°F-9.8°C 81% 2.0 mph NE3.2 kmh NE 6.0 mph9.7 kmh 30.82 in1043.7 mb 0.00 in0.0 mm 0.00 in0.0 mm 0.00 in0.0 mm
05:00 AM 19.2°F-7.1°C 14.4°F-9.8°C 81% 1.0 mph NE1.6 kmh NE 6.0 mph9.7 kmh 30.82 in1043.7 mb 0.00 in0.0 mm 0.00 in0.0 mm 0.00 in0.0 mm
05:05 AM 19.0°F-7.2°C 14.2°F-9.9°C 81% 1.0 mph NE1.6 kmh NE 5.0 mph8.0 kmh 30.82 in1043.7 mb 0.00 in0.0 mm 0.00 in0.0 mm 0.00 in0.0 mm
05:10 AM 19.0°F-7.2°C 14.2°F-9.9°C 81% 1.0 mph NE1.6 kmh NE 5.0 mph8.0 kmh 30.82 in1043.7 mb 0.00 in0.0 mm 0.00 in0.0 mm 0.00 in0.0 mm
05:15 AM 18.9°F-7.3°C 14.0°F-10.0°C 81% 1.0 mph NE1.6 kmh NE 5.0 mph8.0 kmh 30.82 in1043.7 mb 0.00 in0.0 mm 0.00 in0.0 mm 0.00 in0.0 mm
05:20 AM 18.9°F-7.3°C 14.4°F-9.8°C 82% 1.0 mph NE1.6 kmh NE 5.0 mph8.0 kmh 30.82 in1043.7 mb 0.00 in0.0 mm 0.00 in0.0 mm 0.00 in0.0 mm
05:25 AM 18.9°F-7.3°C 14.2°F-9.9°C 82% 2.0 mph NE3.2 kmh NE 5.0 mph8.0 kmh 30.83 in1044.0 mb 0.00 in0.0 mm 0.00 in0.0 mm 0.00 in0.0 mm
05:30 AM 18.9°F-7.3°C 14.2°F-9.9°C 82% 2.0 mph NE3.2 kmh NE 5.0 mph8.0 kmh 30.83 in1044.0 mb 0.00 in0.0 mm 0.00 in0.0 mm 0.00 in0.0 mm
05:35 AM 18.7°F-7.4°C 14.2°F-9.9°C 82% 1.0 mph NE1.6 kmh NE 5.0 mph8.0 kmh 30.83 in1044.0 mb 0.00 in0.0 mm 0.00 in0.0 mm 0.00 in0.0 mm
05:40 AM 18.7°F-7.4°C 14.0°F-10.0°C 82% 1.0 mph NE1.6 kmh NE 5.0 mph8.0 kmh 30.83 in1044.0 mb 0.00 in0.0 mm 0.00 in0.0 mm 0.00 in0.0 mm
05:45 AM 18.5°F-7.5°C 14.0°F-10.0°C 82% 1.0 mph NE1.6 kmh NE 5.0 mph8.0 kmh 30.84 in1044.4 mb 0.00 in0.0 mm 0.00 in0.0 mm 0.00 in0.0 mm
05:50 AM 18.5°F-7.5°C 14.0°F-10.0°C 82% 1.0 mph NE1.6 kmh NE 4.0 mph6.4 kmh 30.83 in1044.0 mb 0.00 in0.0 mm 0.00 in0.0 mm 0.00 in0.0 mm
05:55 AM 18.5°F-7.5°C 14.2°F-9.9°C 83% 1.0 mph NE1.6 kmh NE 4.0 mph6.4 kmh 30.83 in1044.0 mb 0.00 in0.0 mm 0.00 in0.0 mm 0.00 in0.0 mm
06:00 AM 18.5°F-7.5°C 14.2°F-9.9°C 83% 1.0 mph NE1.6 kmh NE 4.0 mph6.4 kmh 30.83 in1044.0 mb 0.00 in0.0 mm 0.00 in0.0 mm 0.00 in0.0 mm
06:05 AM 18.5°F-7.5°C 14.2°F-9.9°C 83% 1.0 mph NE1.6 kmh NE 5.0 mph8.0 kmh 30.83 in1044.0 mb 0.00 in0.0 mm 0.00 in0.0 mm 0.00 in0.0 mm
06:10 AM 18.7°F-7.4°C 14.4°F-9.8°C 83% 1.0 mph NE1.6 kmh NE 5.0 mph8.0 kmh 30.83 in1044.0 mb 0.00 in0.0 mm 0.00 in0.0 mm 0.00 in0.0 mm
06:15 AM 18.7°F-7.4°C 14.4°F-9.8°C 83% 1.0 mph NE1.6 kmh NE 5.0 mph8.0 kmh 30.83 in1044.0 mb 0.00 in0.0 mm 0.00 in0.0 mm 0.00 in0.0 mm
06:20 AM 18.5°F-7.5°C 14.2°F-9.9°C 83% 1.0 mph NE1.6 kmh NE 5.0 mph8.0 kmh 30.83 in1044.0 mb 0.00 in0.0 mm 0.00 in0.0 mm 0.00 in0.0 mm
06:25 AM 18.5°F-7.5°C 14.2°F-9.9°C 83% 2.0 mph NE3.2 kmh NE 5.0 mph8.0 kmh 30.83 in1044.0 mb 0.00 in0.0 mm 0.00 in0.0 mm 0.00 in0.0 mm
06:30 AM 18.3°F-7.6°C 14.2°F-9.9°C 83% 2.0 mph NE3.2 kmh NE 5.0 mph8.0 kmh 30.83 in1044.0 mb 0.00 in0.0 mm 0.00 in0.0 mm 0.00 in0.0 mm
06:35 AM 18.3°F-7.6°C 14.0°F-10.0°C 83% 2.0 mph NE3.2 kmh NE 4.0 mph6.4 kmh 30.83 in1044.0 mb 0.00 in0.0 mm 0.00 in0.0 mm 0.00 in0.0 mm
06:40 AM 18.3°F-7.6°C 14.0°F-10.0°C 83% 1.0 mph NE1.6 kmh NE 4.0 mph6.4 kmh 30.83 in1044.0 mb 0.00 in0.0 mm 0.00 in0.0 mm 0.00 in0.0 mm
06:45 AM 18.1°F-7.7°C 13.8°F-10.1°C 83% 1.0 mph NE1.6 kmh NE 4.0 mph6.4 kmh 30.84 in1044.4 mb 0.00 in0.0 mm 0.00 in0.0 mm 0.00 in0.0 mm
06:50 AM 18.1°F-7.7°C 14.2°F-9.9°C 84% 1.0 mph NE1.6 kmh NE 4.0 mph6.4 kmh 30.84 in1044.4 mb 0.00 in0.0 mm 0.00 in0.0 mm 0.00 in0.0 mm
06:55 AM 18.3°F-7.6°C 14.4°F-9.8°C 84% 1.0 mph NE1.6 kmh NE 5.0 mph8.0 kmh 30.84 in1044.4 mb 0.00 in0.0 mm 0.00 in0.0 mm 0.00 in0.0 mm
07:00 AM 18.3°F-7.6°C 14.4°F-9.8°C 84% 1.0 mph NE1.6 kmh NE 5.0 mph8.0 kmh 30.84 in1044.4 mb 0.00 in0.0 mm 0.00 in0.0 mm 0.00 in0.0 mm
07:05 AM 18.5°F-7.5°C 14.5°F-9.7°C 84% 1.0 mph NE1.6 kmh NE 5.0 mph8.0 kmh 30.84 in1044.4 mb 0.00 in0.0 mm 0.00 in0.0 mm 0.00 in0.0 mm
07:10 AM 18.9°F-7.3°C 14.9°F-9.5°C 84% 1.0 mph NE1.6 kmh NE 5.0 mph8.0 kmh 30.84 in1044.4 mb 0.00 in0.0 mm 0.00 in0.0 mm 0.00 in0.0 mm
07:15 AM 19.2°F-7.1°C 15.1°F-9.4°C 84% 1.0 mph NE1.6 kmh NE 3.0 mph4.8 kmh 30.84 in1044.4 mb 0.00 in0.0 mm 0.00 in0.0 mm 0.00 in0.0 mm
07:20 AM 19.6°F-6.9°C 15.6°F-9.1°C 84% 1.0 mph NE1.6 kmh NE 4.0 mph6.4 kmh 30.84 in1044.4 mb 0.00 in0.0 mm 0.00 in0.0 mm 0.00 in0.0 mm
07:25 AM 19.6°F-6.9°C 15.3°F-9.3°C 83% 2.0 mph NE3.2 kmh NE 5.0 mph8.0 kmh 30.84 in1044.4 mb 0.00 in0.0 mm 0.00 in0.0 mm 0.00 in0.0 mm
07:30 AM 19.8°F-6.8°C 15.4°F-9.2°C 83% 2.0 mph NE3.2 kmh NE 5.0 mph8.0 kmh 30.84 in1044.4 mb 0.00 in0.0 mm 0.00 in0.0 mm 0.00 in0.0 mm
07:35 AM 20.3°F-6.5°C 16.0°F-8.9°C 83% 1.0 mph NE1.6 kmh NE 4.0 mph6.4 kmh 30.85 in1044.7 mb 0.00 in0.0 mm 0.00 in0.0 mm 0.00 in0.0 mm
07:40 AM 20.7°F-6.3°C 16.2°F-8.8°C 82% 1.0 mph NE1.6 kmh NE 3.0 mph4.8 kmh 30.86 in1045.0 mb 0.00 in0.0 mm 0.00 in0.0 mm 0.00 in0.0 mm
07:45 AM 20.7°F-6.3°C 15.8°F-9.0°C 81% 1.0 mph NE1.6 kmh NE 5.0 mph8.0 kmh 30.86 in1045.0 mb 0.00 in0.0 mm 0.00 in0.0 mm 0.00 in0.0 mm
07:50 AM 20.8°F-6.2°C 15.8°F-9.0°C 81% 2.0 mph NE3.2 kmh NE 6.0 mph9.7 kmh 30.86 in1045.0 mb 0.00 in0.0 mm 0.00 in0.0 mm 0.00 in0.0 mm
07:55 AM 20.8°F-6.2°C 15.6°F-9.1°C 80% 3.0 mph NE4.8 kmh NE 9.0 mph14.5 kmh 30.86 in1045.0 mb 0.00 in0.0 mm 0.00 in0.0 mm 0.00 in0.0 mm
08:00 AM 21.2°F-6.0°C 16.0°F-8.9°C 80% 3.0 mph NE4.8 kmh NE 9.0 mph14.5 kmh 30.86 in1045.0 mb 0.00 in0.0 mm 0.00 in0.0 mm 0.00 in0.0 mm
08:05 AM 21.4°F-5.9°C 16.0°F-8.9°C 79% 3.0 mph NE4.8 kmh NE 8.0 mph12.9 kmh 30.87 in1045.4 mb 0.00 in0.0 mm 0.00 in0.0 mm 0.00 in0.0 mm
08:10 AM 21.6°F-5.8°C 16.2°F-8.8°C 79% 3.0 mph NE4.8 kmh NE 8.0 mph12.9 kmh 30.87 in1045.4 mb 0.00 in0.0 mm 0.00 in0.0 mm 0.00 in0.0 mm
08:15 AM 21.9°F-5.6°C 16.3°F-8.7°C 79% 4.0 mph NE6.4 kmh NE 9.0 mph14.5 kmh 30.87 in1045.4 mb 0.00 in0.0 mm 0.00 in0.0 mm 0.00 in0.0 mm
08:20 AM 22.1°F-5.5°C 16.3°F-8.7°C 78% 3.0 mph NE4.8 kmh NE 9.0 mph14.5 kmh 30.87 in1045.4 mb 0.00 in0.0 mm 0.00 in0.0 mm 0.00 in0.0 mm
08:25 AM 22.5°F-5.3°C 16.3°F-8.7°C 77% 3.0 mph NE4.8 kmh NE 9.0 mph14.5 kmh 30.87 in1045.4 mb 0.00 in0.0 mm 0.00 in0.0 mm 0.00 in0.0 mm
08:30 AM 22.5°F-5.3°C 16.2°F-8.8°C 76% 3.0 mph NE4.8 kmh NE 9.0 mph14.5 kmh 30.87 in1045.4 mb 0.00 in0.0 mm 0.00 in0.0 mm 0.00 in0.0 mm
08:35 AM 22.8°F-5.1°C 16.7°F-8.5°C 77% 3.0 mph NE4.8 kmh NE 9.0 mph14.5 kmh 30.88 in1045.7 mb 0.00 in0.0 mm 0.00 in0.0 mm 0.00 in0.0 mm
08:40 AM 22.6°F-5.2°C 16.0°F-8.9°C 75% 3.0 mph NE4.8 kmh NE 9.0 mph14.5 kmh 30.87 in1045.4 mb 0.00 in0.0 mm 0.00 in0.0 mm 0.00 in0.0 mm
08:45 AM 22.6°F-5.2°C 15.8°F-9.0°C 75% 4.0 mph NE6.4 kmh NE 8.0 mph12.9 kmh 30.87 in1045.4 mb 0.00 in0.0 mm 0.00 in0.0 mm 0.00 in0.0 mm
08:50 AM 22.8°F-5.1°C 16.5°F-8.6°C 76% 4.0 mph NE6.4 kmh NE 8.0 mph12.9 kmh 30.88 in1045.7 mb 0.00 in0.0 mm 0.00 in0.0 mm 0.00 in0.0 mm
08:55 AM 23.2°F-4.9°C 16.7°F-8.5°C 76% 3.0 mph NE4.8 kmh NE 7.0 mph11.3 kmh 30.88 in1045.7 mb 0.00 in0.0 mm 0.00 in0.0 mm 0.00 in0.0 mm
09:00 AM 23.2°F-4.9°C 16.0°F-8.9°C 74% 3.0 mph NE4.8 kmh NE 7.0 mph11.3 kmh 30.88 in1045.7 mb 0.00 in0.0 mm 0.00 in0.0 mm 0.00 in0.0 mm
09:05 AM 23.2°F-4.9°C 16.3°F-8.7°C 75% 3.0 mph NE4.8 kmh NE 7.0 mph11.3 kmh 30.88 in1045.7 mb 0.00 in0.0 mm 0.00 in0.0 mm 0.00 in0.0 mm
09:10 AM 23.4°F-4.8°C 16.5°F-8.6°C 75% 2.0 mph NE3.2 kmh NE 7.0 mph11.3 kmh 30.88 in1045.7 mb 0.00 in0.0 mm 0.00 in0.0 mm 0.00 in0.0 mm
09:15 AM 23.4°F-4.8°C 16.7°F-8.5°C 75% 2.0 mph NE3.2 kmh NE 5.0 mph8.0 kmh 30.88 in1045.7 mb 0.00 in0.0 mm 0.00 in0.0 mm 0.00 in0.0 mm
09:20 AM 23.5°F-4.7°C 16.9°F-8.4°C 75% 1.0 mph NE1.6 kmh NE 5.0 mph8.0 kmh 30.88 in1045.7 mb 0.00 in0.0 mm 0.00 in0.0 mm 0.00 in0.0 mm
09:25 AM 24.1°F-4.4°C 17.2°F-8.2°C 75% 1.0 mph NE1.6 kmh NE 5.0 mph8.0 kmh 30.89 in1046.1 mb 0.00 in0.0 mm 0.00 in0.0 mm 0.00 in0.0 mm
09:30 AM 24.4°F-4.2°C 17.4°F-8.1°C 74% 2.0 mph NE3.2 kmh NE 5.0 mph8.0 kmh 30.89 in1046.1 mb 0.00 in0.0 mm 0.00 in0.0 mm 0.00 in0.0 mm
09:35 AM 24.6°F-4.1°C 17.2°F-8.2°C 73% 2.0 mph NE3.2 kmh NE 5.0 mph8.0 kmh 30.89 in1046.1 mb 0.00 in0.0 mm 0.00 in0.0 mm 0.00 in0.0 mm
09:40 AM 25.0°F-3.9°C 17.1°F-8.3°C 72% 2.0 mph NE3.2 kmh NE 5.0 mph8.0 kmh 30.90 in1046.4 mb 0.00 in0.0 mm 0.00 in0.0 mm 0.00 in0.0 mm
09:45 AM 25.3°F-3.7°C 17.6°F-8.0°C 72% 2.0 mph ENE3.2 kmh ENE 4.0 mph6.4 kmh 30.89 in1046.1 mb 0.00 in0.0 mm 0.00 in0.0 mm 0.00 in0.0 mm
09:50 AM 25.3°F-3.7°C 16.7°F-8.5°C 69% 1.0 mph NE1.6 kmh NE 4.0 mph6.4 kmh 30.90 in1046.4 mb 0.00 in0.0 mm 0.00 in0.0 mm 0.00 in0.0 mm
09:55 AM 25.5°F-3.6°C 16.5°F-8.6°C 68% 1.0 mph NE1.6 kmh NE 4.0 mph6.4 kmh 30.90 in1046.4 mb 0.00 in0.0 mm 0.00 in0.0 mm 0.00 in0.0 mm
10:00 AM 25.5°F-3.6°C 16.3°F-8.7°C 68% 1.0 mph NE1.6 kmh NE 5.0 mph8.0 kmh 30.91 in1046.7 mb 0.00 in0.0 mm 0.00 in0.0 mm 0.00 in0.0 mm
10:05 AM 25.3°F-3.7°C 15.6°F-9.1°C 66% 2.0 mph NE3.2 kmh NE 7.0 mph11.3 kmh 30.91 in1046.7 mb 0.00 in0.0 mm 0.00 in0.0 mm 0.00 in0.0 mm
10:10 AM 25.5°F-3.6°C 15.8°F-9.0°C 66% 3.0 mph NE4.8 kmh NE 7.0 mph11.3 kmh 30.91 in1046.7 mb 0.00 in0.0 mm 0.00 in0.0 mm 0.00 in0.0 mm
10:15 AM 26.4°F-3.1°C 16.9°F-8.4°C 67% 2.0 mph NE3.2 kmh NE 6.0 mph9.7 kmh 30.91 in1046.7 mb 0.00 in0.0 mm 0.00 in0.0 mm 0.00 in0.0 mm
10:20 AM 26.8°F-2.9°C 16.5°F-8.6°C 65% 2.0 mph NNE3.2 kmh NNE 5.0 mph8.0 kmh 30.90 in1046.4 mb 0.00 in0.0 mm 0.00 in0.0 mm 0.00 in0.0 mm
10:25 AM 27.3°F-2.6°C 17.1°F-8.3°C 65% 1.0 mph NNE1.6 kmh NNE 5.0 mph8.0 kmh 30.90 in1046.4 mb 0.00 in0.0 mm 0.00 in0.0 mm 0.00 in0.0 mm
10:30 AM 27.9°F-2.3°C 17.6°F-8.0°C 65% 1.0 mph ESE1.6 kmh ESE 3.0 mph4.8 kmh 30.90 in1046.4 mb 0.00 in0.0 mm 0.00 in0.0 mm 0.00 in0.0 mm
10:35 AM 27.9°F-2.3°C 16.2°F-8.8°C 61% 1.0 mph ENE1.6 kmh ENE 6.0 mph9.7 kmh 30.90 in1046.4 mb 0.00 in0.0 mm 0.00 in0.0 mm 0.00 in0.0 mm
10:40 AM 27.1°F-2.7°C 15.1°F-9.4°C 60% 2.0 mph NE3.2 kmh NE 7.0 mph11.3 kmh 30.89 in1046.1 mb 0.00 in0.0 mm 0.00 in0.0 mm 0.00 in0.0 mm
10:45 AM 26.8°F-2.9°C 14.7°F-9.6°C 60% 2.0 mph NE3.2 kmh NE 7.0 mph11.3 kmh 30.89 in1046.1 mb 0.00 in0.0 mm 0.00 in0.0 mm 0.00 in0.0 mm
10:50 AM 26.6°F-3.0°C 14.5°F-9.7°C 60% 3.0 mph NE4.8 kmh NE 8.0 mph12.9 kmh 30.89 in1046.1 mb 0.00 in0.0 mm 0.00 in0.0 mm 0.00 in0.0 mm
10:55 AM 26.8°F-2.9°C 15.1°F-9.4°C 61% 4.0 mph NE6.4 kmh NE 8.0 mph12.9 kmh 30.89 in1046.1 mb 0.00 in0.0 mm 0.00 in0.0 mm 0.00 in0.0 mm
11:00 AM 27.1°F-2.7°C 15.1°F-9.4°C 60% 3.0 mph NE4.8 kmh NE 7.0 mph11.3 kmh 30.89 in1046.1 mb 0.00 in0.0 mm 0.00 in0.0 mm 0.00 in0.0 mm
11:05 AM 27.3°F-2.6°C 14.9°F-9.5°C 59% 3.0 mph NE4.8 kmh NE 10.0 mph16.1 kmh 30.89 in1046.1 mb 0.00 in0.0 mm 0.00 in0.0 mm 0.00 in0.0 mm
11:10 AM 27.1°F-2.7°C 14.7°F-9.6°C 59% 3.0 mph NE4.8 kmh NE 10.0 mph16.1 kmh 30.88 in1045.7 mb 0.00 in0.0 mm 0.00 in0.0 mm 0.00 in0.0 mm
11:15 AM 27.3°F-2.6°C 14.9°F-9.5°C 59% 3.0 mph NNE4.8 kmh NNE 7.0 mph11.3 kmh 30.89 in1046.1 mb 0.00 in0.0 mm 0.00 in0.0 mm 0.00 in0.0 mm
11:20 AM 27.9°F-2.3°C 15.6°F-9.1°C 60% 3.0 mph N4.8 kmh N 6.0 mph9.7 kmh 30.89 in1046.1 mb 0.00 in0.0 mm 0.00 in0.0 mm 0.00 in0.0 mm
11:25 AM 28.2°F-2.1°C 15.8°F-9.0°C 59% 2.0 mph N3.2 kmh N 6.0 mph9.7 kmh 30.89 in1046.1 mb 0.00 in0.0 mm 0.00 in0.0 mm 0.00 in0.0 mm
11:30 AM 28.0°F-2.2°C 14.7°F-9.6°C 57% 3.0 mph NE4.8 kmh NE 9.0 mph14.5 kmh 30.89 in1046.1 mb 0.00 in0.0 mm 0.00 in0.0 mm 0.00 in0.0 mm
11:35 AM 28.0°F-2.2°C 14.7°F-9.6°C 57% 3.0 mph NE4.8 kmh NE 9.0 mph14.5 kmh 30.89 in1046.1 mb 0.00 in0.0 mm 0.00 in0.0 mm 0.00 in0.0 mm
11:40 AM 28.2°F-2.1°C 14.9°F-9.5°C 57% 1.0 mph NNE1.6 kmh NNE 7.0 mph11.3 kmh 30.90 in1046.4 mb 0.00 in0.0 mm 0.00 in0.0 mm 0.00 in0.0 mm
11:45 AM 28.6°F-1.9°C 15.3°F-9.3°C 57% 2.0 mph NE3.2 kmh NE 8.0 mph12.9 kmh 30.89 in1046.1 mb 0.00 in0.0 mm 0.00 in0.0 mm 0.00 in0.0 mm
11:50 AM 28.6°F-1.9°C 15.3°F-9.3°C 57% 2.0 mph NE3.2 kmh NE 8.0 mph12.9 kmh 30.90 in1046.4 mb 0.00 in0.0 mm 0.00 in0.0 mm 0.00 in0.0 mm
11:55 AM 28.2°F-2.1°C 14.9°F-9.5°C 57% 2.0 mph NE3.2 kmh NE 8.0 mph12.9 kmh 30.89 in1046.1 mb 0.00 in0.0 mm 0.00 in0.0 mm 0.00 in0.0 mm
12:00 PM 28.2°F-2.1°C 14.9°F-9.5°C 57% 3.0 mph NE4.8 kmh NE 8.0 mph12.9 kmh 30.89 in1046.1 mb 0.00 in0.0 mm 0.00 in0.0 mm 0.00 in0.0 mm
12:05 PM 28.2°F-2.1°C 14.9°F-9.5°C 57% 2.0 mph NE3.2 kmh NE 6.0 mph9.7 kmh 30.89 in1046.1 mb 0.00 in0.0 mm 0.00 in0.0 mm 0.00 in0.0 mm
12:10 PM 28.8°F-1.8°C 15.9°F-8.9°C 58% 2.0 mph NE3.2 kmh NE 7.0 mph11.3 kmh 30.88 in1045.7 mb 0.00 in0.0 mm 0.00 in0.0 mm 0.00 in0.0 mm
12:15 PM 28.7°F-1.8°C 15.4°F-9.2°C 57% 3.0 mph NNE4.8 kmh NNE 8.0 mph12.9 kmh 30.88 in1045.7 mb 0.00 in0.0 mm 0.00 in0.0 mm 0.00 in0.0 mm
12:20 PM 28.8°F-1.8°C 15.5°F-9.2°C 57% 1.0 mph NE1.6 kmh NE 8.0 mph12.9 kmh 30.87 in1045.4 mb 0.00 in0.0 mm 0.00 in0.0 mm 0.00 in0.0 mm
12:25 PM 28.8°F-1.8°C 14.6°F-9.7°C 55% 3.0 mph NE4.8 kmh NE 6.0 mph9.7 kmh 30.87 in1045.4 mb 0.00 in0.0 mm 0.00 in0.0 mm 0.00 in0.0 mm
12:30 PM 28.6°F-1.9°C 14.5°F-9.7°C 55% 1.0 mph ENE1.6 kmh ENE 6.0 mph9.7 kmh 30.86 in1045.0 mb 0.00 in0.0 mm 0.00 in0.0 mm 0.00 in0.0 mm
12:40 PM 28.8°F-1.8°C 14.7°F-9.6°C 55% Calm Calm 3.0 mph4.8 kmh 30.86 in1045.0 mb 0.00 in0.0 mm 0.00 in0.0 mm 0.00 in0.0 mm
12:45 PM 29.1°F-1.6°C 15.4°F-9.2°C 56% Calm Calm 3.0 mph4.8 kmh 30.86 in1045.0 mb 0.00 in0.0 mm 0.00 in0.0 mm 0.00 in0.0 mm
12:50 PM 29.1°F-1.6°C 15.1°F-9.4°C 55% 1.0 mph NNE1.6 kmh NNE 5.0 mph8.0 kmh 30.85 in1044.7 mb 0.00 in0.0 mm 0.00 in0.0 mm 0.00 in0.0 mm
12:55 PM 28.9°F-1.7°C 15.3°F-9.3°C 56% 1.0 mph NE1.6 kmh NE 5.0 mph8.0 kmh 30.85 in1044.7 mb 0.00 in0.0 mm 0.00 in0.0 mm 0.00 in0.0 mm
01:00 PM 28.9°F-1.7°C 14.7°F-9.6°C 55% 2.0 mph NE3.2 kmh NE 5.0 mph8.0 kmh 30.85 in1044.7 mb 0.00 in0.0 mm 0.00 in0.0 mm 0.00 in0.0 mm
01:05 PM 28.8°F-1.8°C 14.7°F-9.6°C 55% 1.0 mph ENE1.6 kmh ENE 5.0 mph8.0 kmh 30.85 in1044.7 mb 0.00 in0.0 mm 0.00 in0.0 mm 0.00 in0.0 mm
01:10 PM 29.1°F-1.6°C 15.4°F-9.2°C 56% Calm Calm 3.0 mph4.8 kmh 30.84 in1044.4 mb 0.00 in0.0 mm 0.00 in0.0 mm 0.00 in0.0 mm
01:15 PM 30.0°F-1.1°C 15.8°F-9.0°C 55% Calm Calm 3.0 mph4.8 kmh 30.84 in1044.4 mb 0.00 in0.0 mm 0.00 in0.0 mm 0.00 in0.0 mm
01:20 PM 30.6°F-0.8°C 15.4°F-9.2°C 53% 1.0 mph S1.6 kmh S 6.0 mph9.7 kmh 30.84 in1044.4 mb 0.00 in0.0 mm 0.00 in0.0 mm 0.00 in0.0 mm
01:25 PM 30.6°F-0.8°C 15.4°F-9.2°C 53% 1.0 mph SSE1.6 kmh SSE 6.0 mph9.7 kmh 30.84 in1044.4 mb 0.00 in0.0 mm 0.00 in0.0 mm 0.00 in0.0 mm
01:30 PM 31.1°F-0.5°C 15.4°F-9.2°C 52% Calm Calm 3.0 mph4.8 kmh 30.84 in1044.4 mb 0.00 in0.0 mm 0.00 in0.0 mm 0.00 in0.0 mm
01:35 PM 30.9°F-0.6°C 14.9°F-9.5°C 51% Calm Calm 5.0 mph8.0 kmh 30.84 in1044.4 mb 0.00 in0.0 mm 0.00 in0.0 mm 0.00 in0.0 mm
01:40 PM 30.6°F-0.8°C 14.5°F-9.7°C 51% 1.0 mph NE1.6 kmh NE 5.0 mph8.0 kmh 30.84 in1044.4 mb 0.00 in0.0 mm 0.00 in0.0 mm 0.00 in0.0 mm
01:45 PM 30.4°F-0.9°C 14.9°F-9.5°C 52% 2.0 mph NE3.2 kmh NE 5.0 mph8.0 kmh 30.84 in1044.4 mb 0.00 in0.0 mm 0.00 in0.0 mm 0.00 in0.0 mm
01:50 PM 30.6°F-0.8°C 15.1°F-9.4°C 52% 1.0 mph NE1.6 kmh NE 4.0 mph6.4 kmh 30.85 in1044.7 mb 0.00 in0.0 mm 0.00 in0.0 mm 0.00 in0.0 mm
01:55 PM 31.1°F-0.5°C 15.4°F-9.2°C 52% 2.0 mph NNE3.2 kmh NNE 6.0 mph9.7 kmh 30.84 in1044.4 mb 0.00 in0.0 mm 0.00 in0.0 mm 0.00 in0.0 mm
02:00 PM 30.7°F-0.7°C 14.7°F-9.6°C 51% 2.0 mph NNE3.2 kmh NNE 6.0 mph9.7 kmh 30.84 in1044.4 mb 0.00 in0.0 mm 0.00 in0.0 mm 0.00 in0.0 mm
02:05 PM 30.9°F-0.6°C 14.9°F-9.5°C 51% 1.0 mph NNE1.6 kmh NNE 6.0 mph9.7 kmh 30.84 in1044.4 mb 0.00 in0.0 mm 0.00 in0.0 mm 0.00 in0.0 mm
02:10 PM 31.3°F-0.4°C 15.1°F-9.4°C 51% 1.0 mph N1.6 kmh N 6.0 mph9.7 kmh 30.84 in1044.4 mb 0.00 in0.0 mm 0.00 in0.0 mm 0.00 in0.0 mm
02:15 PM 31.5°F-0.3°C 14.9°F-9.5°C 50% 1.0 mph NW1.6 kmh NW 4.0 mph6.4 kmh 30.84 in1044.4 mb 0.00 in0.0 mm 0.00 in0.0 mm 0.00 in0.0 mm
02:20 PM 31.6°F-0.2°C 15.1°F-9.4°C 50% 1.0 mph NNW1.6 kmh NNW 5.0 mph8.0 kmh 30.84 in1044.4 mb 0.00 in0.0 mm 0.00 in0.0 mm 0.00 in0.0 mm
02:25 PM 31.5°F-0.3°C 14.9°F-9.5°C 50% 2.0 mph NW3.2 kmh NW 7.0 mph11.3 kmh 30.84 in1044.4 mb 0.00 in0.0 mm 0.00 in0.0 mm 0.00 in0.0 mm
02:30 PM 31.5°F-0.3°C 15.3°F-9.3°C 51% 3.0 mph N4.8 kmh N 7.0 mph11.3 kmh 30.84 in1044.4 mb 0.00 in0.0 mm 0.00 in0.0 mm 0.00 in0.0 mm
02:35 PM 31.8°F-0.1°C 15.6°F-9.1°C 51% 1.0 mph NE1.6 kmh NE 5.0 mph8.0 kmh 30.84 in1044.4 mb 0.00 in0.0 mm 0.00 in0.0 mm 0.00 in0.0 mm
02:40 PM 32.2°F0.1°C 15.1°F-9.4°C 49% 1.0 mph NNE1.6 kmh NNE 4.0 mph6.4 kmh 30.84 in1044.4 mb 0.00 in0.0 mm 0.00 in0.0 mm 0.00 in0.0 mm
02:45 PM 31.8°F-0.1°C 15.3°F-9.3°C 50% 1.0 mph N1.6 kmh N 5.0 mph8.0 kmh 30.84 in1044.4 mb 0.00 in0.0 mm 0.00 in0.0 mm 0.00 in0.0 mm
02:50 PM 31.5°F-0.3°C 14.5°F-9.7°C 49% 1.0 mph N1.6 kmh N 5.0 mph8.0 kmh 30.84 in1044.4 mb 0.00 in0.0 mm 0.00 in0.0 mm 0.00 in0.0 mm
02:55 PM 31.5°F-0.3°C 14.4°F-9.8°C 49% 2.0 mph NNE3.2 kmh NNE 6.0 mph9.7 kmh 30.84 in1044.4 mb 0.00 in0.0 mm 0.00 in0.0 mm 0.00 in0.0 mm
03:00 PM 32.0°F0.0°C 15.4°F-9.2°C 50% 1.0 mph NNE1.6 kmh NNE 6.0 mph9.7 kmh 30.84 in1044.4 mb 0.00 in0.0 mm 0.00 in0.0 mm 0.00 in0.0 mm
03:05 PM 33.1°F0.6°C 15.4°F-9.2°C 48% Calm Calm 1.0 mph1.6 kmh 30.84 in1044.4 mb 0.00 in0.0 mm 0.00 in0.0 mm 0.00 in0.0 mm
03:10 PM 32.5°F0.3°C 14.5°F-9.7°C 47% 1.0 mph N1.6 kmh N 5.0 mph8.0 kmh 30.84 in1044.4 mb 0.00 in0.0 mm 0.00 in0.0 mm 0.00 in0.0 mm
03:15 PM 32.2°F0.1°C 14.5°F-9.7°C 48% 1.0 mph N1.6 kmh N 5.0 mph8.0 kmh 30.84 in1044.4 mb 0.00 in0.0 mm 0.00 in0.0 mm 0.00 in0.0 mm
03:20 PM 31.8°F-0.1°C 13.3°F-10.4°C 46% 1.0 mph NE1.6 kmh NE 5.0 mph8.0 kmh 30.84 in1044.4 mb 0.00 in0.0 mm 0.00 in0.0 mm 0.00 in0.0 mm
03:25 PM 31.8°F-0.1°C 13.3°F-10.4°C 46% 1.0 mph NE1.6 kmh NE 5.0 mph8.0 kmh 30.83 in1044.0 mb 0.00 in0.0 mm 0.00 in0.0 mm 0.00 in0.0 mm
03:30 PM 31.6°F-0.2°C 13.8°F-10.1°C 47% Calm Calm 3.0 mph4.8 kmh 30.83 in1044.0 mb 0.00 in0.0 mm 0.00 in0.0 mm 0.00 in0.0 mm
03:35 PM 31.8°F-0.1°C 14.0°F-10.0°C 47% 1.0 mph NE1.6 kmh NE 5.0 mph8.0 kmh 30.83 in1044.0 mb 0.00 in0.0 mm 0.00 in0.0 mm 0.00 in0.0 mm
03:40 PM 32.0°F0.0°C 14.0°F-10.0°C 47% 1.0 mph NE1.6 kmh NE 5.0 mph8.0 kmh 30.83 in1044.0 mb 0.00 in0.0 mm 0.00 in0.0 mm 0.00 in0.0 mm
03:45 PM 32.4°F0.2°C 14.4°F-9.8°C 47% 1.0 mph NE1.6 kmh NE 3.0 mph4.8 kmh 30.83 in1044.0 mb 0.00 in0.0 mm 0.00 in0.0 mm 0.00 in0.0 mm
03:50 PM 32.0°F0.0°C 13.5°F-10.3°C 46% 1.0 mph NE1.6 kmh NE 5.0 mph8.0 kmh 30.83 in1044.0 mb 0.00 in0.0 mm 0.00 in0.0 mm 0.00 in0.0 mm
03:55 PM 31.5°F-0.3°C 13.6°F-10.2°C 47% 2.0 mph ENE3.2 kmh ENE 5.0 mph8.0 kmh 30.83 in1044.0 mb 0.00 in0.0 mm 0.00 in0.0 mm 0.00 in0.0 mm
04:00 PM 31.5°F-0.3°C 14.0°F-10.0°C 48% 1.0 mph ENE1.6 kmh ENE 4.0 mph6.4 kmh 30.83 in1044.0 mb 0.00 in0.0 mm 0.00 in0.0 mm 0.00 in0.0 mm
04:05 PM 31.5°F-0.3°C 14.0°F-10.0°C 48% 1.0 mph NE1.6 kmh NE 3.0 mph4.8 kmh 30.82 in1043.7 mb 0.00 in0.0 mm 0.00 in0.0 mm 0.00 in0.0 mm
04:10 PM 31.5°F-0.3°C 14.4°F-9.8°C 49% Calm Calm 3.0 mph4.8 kmh 30.83 in1044.0 mb 0.00 in0.0 mm 0.00 in0.0 mm 0.00 in0.0 mm
04:15 PM 31.5°F-0.3°C 14.4°F-9.8°C 49% Calm Calm 2.0 mph3.2 kmh 30.83 in1044.0 mb 0.00 in0.0 mm 0.00 in0.0 mm 0.00 in0.0 mm
04:20 PM 31.3°F-0.4°C 14.7°F-9.6°C 50% 1.0 mph NE1.6 kmh NE 4.0 mph6.4 kmh 30.83 in1044.0 mb 0.00 in0.0 mm 0.00 in0.0 mm 0.00 in0.0 mm
04:25 PM 31.3°F-0.4°C 14.7°F-9.6°C 50% 1.0 mph NE1.6 kmh NE 4.0 mph6.4 kmh 30.83 in1044.0 mb 0.00 in0.0 mm 0.00 in0.0 mm 0.00 in0.0 mm
04:30 PM 31.3°F-0.4°C 15.3°F-9.3°C 51% Calm Calm 3.0 mph4.8 kmh 30.83 in1044.0 mb 0.00 in0.0 mm 0.00 in0.0 mm 0.00 in0.0 mm
04:35 PM 31.3°F-0.4°C 15.1°F-9.4°C 51% 1.0 mph N1.6 kmh N 4.0 mph6.4 kmh 30.84 in1044.4 mb 0.00 in0.0 mm 0.00 in0.0 mm 0.00 in0.0 mm
04:40 PM 30.9°F-0.6°C 14.5°F-9.7°C 50% 1.0 mph NE1.6 kmh NE 6.0 mph9.7 kmh 30.83 in1044.0 mb 0.00 in0.0 mm 0.00 in0.0 mm 0.00 in0.0 mm
04:45 PM 30.9°F-0.6°C 14.9°F-9.5°C 51% 1.0 mph NE1.6 kmh NE 6.0 mph9.7 kmh 30.83 in1044.0 mb 0.00 in0.0 mm 0.00 in0.0 mm 0.00 in0.0 mm
04:50 PM 30.9°F-0.6°C 14.4°F-9.8°C 50% 1.0 mph NE1.6 kmh NE 3.0 mph4.8 kmh 30.83 in1044.0 mb 0.00 in0.0 mm 0.00 in0.0 mm 0.00 in0.0 mm
04:55 PM 30.7°F-0.7°C 13.8°F-10.1°C 49% 1.0 mph NE1.6 kmh NE 4.0 mph6.4 kmh 30.83 in1044.0 mb 0.00 in0.0 mm 0.00 in0.0 mm 0.00 in0.0 mm
05:00 PM 30.7°F-0.7°C 13.3°F-10.4°C 48% 1.0 mph NE1.6 kmh NE 4.0 mph6.4 kmh 30.83 in1044.0 mb 0.00 in0.0 mm 0.00 in0.0 mm 0.00 in0.0 mm
05:05 PM 30.7°F-0.7°C 13.8°F-10.1°C 49% 1.0 mph NE1.6 kmh NE 5.0 mph8.0 kmh 30.83 in1044.0 mb 0.00 in0.0 mm 0.00 in0.0 mm 0.00 in0.0 mm
05:10 PM 30.6°F-0.8°C 13.6°F-10.2°C 49% 2.0 mph NE3.2 kmh NE 5.0 mph8.0 kmh 30.83 in1044.0 mb 0.00 in0.0 mm 0.00 in0.0 mm 0.00 in0.0 mm
05:15 PM 30.6°F-0.8°C 14.2°F-9.9°C 50% 1.0 mph NE1.6 kmh NE 4.0 mph6.4 kmh 30.83 in1044.0 mb 0.00 in0.0 mm 0.00 in0.0 mm 0.00 in0.0 mm
05:20 PM 30.6°F-0.8°C 14.2°F-9.9°C 50% 1.0 mph NE1.6 kmh NE 3.0 mph4.8 kmh 30.83 in1044.0 mb 0.00 in0.0 mm 0.00 in0.0 mm 0.00 in0.0 mm
05:25 PM 30.6°F-0.8°C 14.0°F-10.0°C 50% 1.0 mph ENE1.6 kmh ENE 3.0 mph4.8 kmh 30.82 in1043.7 mb 0.00 in0.0 mm 0.00 in0.0 mm 0.00 in0.0 mm
05:30 PM 30.4°F-0.9°C 14.4°F-9.8°C 51% 1.0 mph NE1.6 kmh NE 4.0 mph6.4 kmh 30.82 in1043.7 mb 0.00 in0.0 mm 0.00 in0.0 mm 0.00 in0.0 mm
05:35 PM 30.4°F-0.9°C 14.4°F-9.8°C 51% 1.0 mph NE1.6 kmh NE 4.0 mph6.4 kmh 30.82 in1043.7 mb 0.00 in0.0 mm 0.00 in0.0 mm 0.00 in0.0 mm
05:40 PM 30.4°F-0.9°C 14.4°F-9.8°C 51% 1.0 mph NE1.6 kmh NE 4.0 mph6.4 kmh 30.82 in1043.7 mb 0.00 in0.0 mm 0.00 in0.0 mm 0.00 in0.0 mm
05:45 PM 30.4°F-0.9°C 14.9°F-9.5°C 52% 1.0 mph NE1.6 kmh NE 4.0 mph6.4 kmh 30.82 in1043.7 mb 0.00 in0.0 mm 0.00 in0.0 mm 0.00 in0.0 mm
05:50 PM 30.4°F-0.9°C 14.9°F-9.5°C 52% Calm Calm 2.0 mph3.2 kmh 30.82 in1043.7 mb 0.00 in0.0 mm 0.00 in0.0 mm 0.00 in0.0 mm
05:55 PM 30.4°F-0.9°C 14.9°F-9.5°C 52% Calm Calm 2.0 mph3.2 kmh 30.82 in1043.7 mb 0.00 in0.0 mm 0.00 in0.0 mm 0.00 in0.0 mm
06:00 PM 30.4°F-0.9°C 14.7°F-9.6°C 52% Calm Calm 2.0 mph3.2 kmh 30.82 in1043.7 mb 0.00 in0.0 mm 0.00 in0.0 mm 0.00 in0.0 mm
06:05 PM 30.4°F-0.9°C 15.3°F-9.3°C 53% Calm Calm 1.0 mph1.6 kmh 30.82 in1043.7 mb 0.00 in0.0 mm 0.00 in0.0 mm 0.00 in0.0 mm
06:10 PM 30.2°F-1.0°C 15.6°F-9.1°C 54% Calm Calm 3.0 mph4.8 kmh 30.83 in1044.0 mb 0.00 in0.0 mm 0.00 in0.0 mm 0.00 in0.0 mm
06:15 PM 30.2°F-1.0°C 15.6°F-9.1°C 54% Calm Calm 3.0 mph4.8 kmh 30.82 in1043.7 mb 0.00 in0.0 mm 0.00 in0.0 mm 0.00 in0.0 mm
06:20 PM 30.0°F-1.1°C 15.4°F-9.2°C 54% Calm Calm 1.0 mph1.6 kmh 30.82 in1043.7 mb 0.00 in0.0 mm 0.00 in0.0 mm 0.00 in0.0 mm
06:25 PM 30.0°F-1.1°C 15.4°F-9.2°C 54% Calm Calm 1.0 mph1.6 kmh 30.82 in1043.7 mb 0.00 in0.0 mm 0.00 in0.0 mm 0.00 in0.0 mm
06:30 PM 30.0°F-1.1°C 15.4°F-9.2°C 54% Calm Calm 1.0 mph1.6 kmh 30.82 in1043.7 mb 0.00 in0.0 mm 0.00 in0.0 mm 0.00 in0.0 mm
06:35 PM 30.0°F-1.1°C 15.3°F-9.3°C 54% Calm Calm 1.0 mph1.6 kmh 30.81 in1043.3 mb 0.00 in0.0 mm 0.00 in0.0 mm 0.00 in0.0 mm
06:40 PM 29.8°F-1.2°C 15.6°F-9.1°C 55% Calm Calm 2.0 mph3.2 kmh 30.81 in1043.3 mb 0.00 in0.0 mm 0.00 in0.0 mm 0.00 in0.0 mm
06:45 PM 29.8°F-1.2°C 15.1°F-9.4°C 54% Calm Calm 2.0 mph3.2 kmh 30.80 in1043.0 mb 0.00 in0.0 mm 0.00 in0.0 mm 0.00 in0.0 mm
06:50 PM 29.7°F-1.3°C 15.4°F-9.2°C 55% Calm Calm 1.0 mph1.6 kmh 30.80 in1043.0 mb 0.00 in0.0 mm 0.00 in0.0 mm 0.00 in0.0 mm
06:55 PM 29.5°F-1.4°C 15.3°F-9.3°C 55% Calm Calm 1.0 mph1.6 kmh 30.80 in1043.0 mb 0.00 in0.0 mm 0.00 in0.0 mm 0.00 in0.0 mm
07:00 PM 29.5°F-1.4°C 15.3°F-9.3°C 55% Calm Calm 1.0 mph1.6 kmh 30.80 in1043.0 mb 0.00 in0.0 mm 0.00 in0.0 mm 0.00 in0.0 mm
07:05 PM 29.3°F-1.5°C 15.4°F-9.2°C 56% Calm Calm 1.0 mph1.6 kmh 30.81 in1043.3 mb 0.00 in0.0 mm 0.00 in0.0 mm 0.00 in0.0 mm
07:10 PM 29.3°F-1.5°C 16.0°F-8.9°C 57% Calm Calm 2.0 mph3.2 kmh 30.81 in1043.3 mb 0.00 in0.0 mm 0.00 in0.0 mm 0.00 in0.0 mm
07:15 PM 29.3°F-1.5°C 16.0°F-8.9°C 57% Calm Calm 2.0 mph3.2 kmh 30.81 in1043.3 mb 0.00 in0.0 mm 0.00 in0.0 mm 0.00 in0.0 mm
07:20 PM 29.1°F-1.6°C 15.8°F-9.0°C 57% Calm Calm 1.0 mph1.6 kmh 30.80 in1043.0 mb 0.00 in0.0 mm 0.00 in0.0 mm 0.00 in0.0 mm
07:25 PM 28.9°F-1.7°C 16.0°F-8.9°C 58% Calm Calm 1.0 mph1.6 kmh 30.80 in1043.0 mb 0.00 in0.0 mm 0.00 in0.0 mm 0.00 in0.0 mm
07:30 PM 28.8°F-1.8°C 15.8°F-9.0°C 58% Calm Calm 1.0 mph1.6 kmh 30.80 in1043.0 mb 0.00 in0.0 mm 0.00 in0.0 mm 0.00 in0.0 mm
07:35 PM 28.8°F-1.8°C 16.3°F-8.7°C 59% Calm Calm 1.0 mph1.6 kmh 30.80 in1043.0 mb 0.00 in0.0 mm 0.00 in0.0 mm 0.00 in0.0 mm
07:40 PM 28.8°F-1.8°C 16.2°F-8.8°C 59% Calm Calm 1.0 mph1.6 kmh 30.80 in1043.0 mb 0.00 in0.0 mm 0.00 in0.0 mm 0.00 in0.0 mm
07:45 PM 28.8°F-1.8°C 16.2°F-8.8°C 59% Calm Calm 2.0 mph3.2 kmh 30.79 in1042.7 mb 0.00 in0.0 mm 0.00 in0.0 mm 0.00 in0.0 mm
07:50 PM 28.8°F-1.8°C 16.5°F-8.6°C 60% Calm Calm 2.0 mph3.2 kmh 30.80 in1043.0 mb 0.00 in0.0 mm 0.00 in0.0 mm 0.00 in0.0 mm
07:55 PM 28.8°F-1.8°C 16.7°F-8.5°C 60% Calm Calm 2.0 mph3.2 kmh 30.80 in1043.0 mb 0.00 in0.0 mm 0.00 in0.0 mm 0.00 in0.0 mm
08:00 PM 28.8°F-1.8°C 16.7°F-8.5°C 60% Calm Calm 1.0 mph1.6 kmh 30.80 in1043.0 mb 0.00 in0.0 mm 0.00 in0.0 mm 0.00 in0.0 mm
08:05 PM 28.8°F-1.8°C 16.7°F-8.5°C 60% Calm Calm 1.0 mph1.6 kmh 30.80 in1043.0 mb 0.00 in0.0 mm 0.00 in0.0 mm 0.00 in0.0 mm
08:10 PM 28.8°F-1.8°C 16.7°F-8.5°C 60% Calm Calm 1.0 mph1.6 kmh 30.80 in1043.0 mb 0.00 in0.0 mm 0.00 in0.0 mm 0.00 in0.0 mm
08:15 PM 28.8°F-1.8°C 16.3°F-8.7°C 59% Calm Calm 1.0 mph1.6 kmh 30.80 in1043.0 mb 0.00 in0.0 mm 0.00 in0.0 mm 0.00 in0.0 mm
08:20 PM 28.8°F-1.8°C 16.3°F-8.7°C 59% Calm Calm 1.0 mph1.6 kmh 30.80 in1043.0 mb 0.00 in0.0 mm 0.00 in0.0 mm 0.00 in0.0 mm
08:25 PM 28.8°F-1.8°C 16.7°F-8.5°C 60% Calm Calm 1.0 mph1.6 kmh 30.80 in1043.0 mb 0.00 in0.0 mm 0.00 in0.0 mm 0.00 in0.0 mm
08:30 PM 28.8°F-1.8°C 16.5°F-8.6°C 60% Calm Calm 2.0 mph3.2 kmh 30.79 in1042.7 mb 0.00 in0.0 mm 0.00 in0.0 mm 0.00 in0.0 mm
08:35 PM 28.6°F-1.9°C 16.5°F-8.6°C 60% Calm Calm 2.0 mph3.2 kmh 30.79 in1042.7 mb 0.00 in0.0 mm 0.00 in0.0 mm 0.00 in0.0 mm
08:40 PM 28.6°F-1.9°C 16.9°F-8.4°C 61% Calm Calm 3.0 mph4.8 kmh 30.79 in1042.7 mb 0.00 in0.0 mm 0.00 in0.0 mm 0.00 in0.0 mm
08:45 PM 28.6°F-1.9°C 16.9°F-8.4°C 61% Calm Calm 3.0 mph4.8 kmh 30.79 in1042.7 mb 0.00 in0.0 mm 0.00 in0.0 mm 0.00 in0.0 mm
08:50 PM 28.6°F-1.9°C 16.7°F-8.5°C 61% Calm Calm 2.0 mph3.2 kmh 30.79 in1042.7 mb 0.00 in0.0 mm 0.00 in0.0 mm 0.00 in0.0 mm
08:55 PM 28.4°F-2.0°C 16.7°F-8.5°C 61% Calm Calm -- 30.79 in1042.7 mb 0.00 in0.0 mm 0.00 in0.0 mm 0.00 in0.0 mm
09:00 PM 28.2°F-2.1°C 16.5°F-8.6°C 61% Calm Calm -- 30.79 in1042.7 mb 0.00 in0.0 mm 0.00 in0.0 mm 0.00 in0.0 mm
09:05 PM 28.0°F-2.2°C 16.3°F-8.7°C 61% Calm Calm -- 30.79 in1042.7 mb 0.00 in0.0 mm 0.00 in0.0 mm 0.00 in0.0 mm
09:10 PM 27.9°F-2.3°C 16.2°F-8.8°C 61% Calm Calm 1.0 mph1.6 kmh 30.79 in1042.7 mb 0.00 in0.0 mm 0.00 in0.0 mm 0.00 in0.0 mm
09:15 PM 27.7°F-2.4°C 16.0°F-8.9°C 61% Calm Calm 1.0 mph1.6 kmh 30.79 in1042.7 mb 0.00 in0.0 mm 0.00 in0.0 mm 0.00 in0.0 mm
09:20 PM 27.7°F-2.4°C 16.3°F-8.7°C 62% Calm Calm -- 30.80 in1043.0 mb 0.00 in0.0 mm 0.00 in0.0 mm 0.00 in0.0 mm
09:25 PM 27.5°F-2.5°C 16.5°F-8.6°C 63% Calm Calm -- 30.80 in1043.0 mb 0.00 in0.0 mm 0.00 in0.0 mm 0.00 in0.0 mm
09:30 PM 27.3°F-2.6°C 16.5°F-8.6°C 63% Calm Calm -- 30.80 in1043.0 mb 0.00 in0.0 mm 0.00 in0.0 mm 0.00 in0.0 mm
09:35 PM 27.1°F-2.7°C 16.3°F-8.7°C 63% Calm Calm -- 30.80 in1043.0 mb 0.00 in0.0 mm 0.00 in0.0 mm 0.00 in0.0 mm
09:40 PM 27.0°F-2.8°C 16.3°F-8.7°C 64% Calm Calm -- 30.80 in1043.0 mb 0.00 in0.0 mm 0.00 in0.0 mm 0.00 in0.0 mm
09:45 PM 26.8°F-2.9°C 16.5°F-8.6°C 65% Calm Calm -- 30.80 in1043.0 mb 0.00 in0.0 mm 0.00 in0.0 mm 0.00 in0.0 mm
09:50 PM 26.2°F-3.2°C 16.5°F-8.6°C 66% Calm Calm -- 30.80 in1043.0 mb 0.00 in0.0 mm 0.00 in0.0 mm 0.00 in0.0 mm
09:55 PM 25.9°F-3.4°C 16.2°F-8.8°C 66% Calm Calm -- 30.80 in1043.0 mb 0.00 in0.0 mm 0.00 in0.0 mm 0.00 in0.0 mm
10:00 PM 25.9°F-3.4°C 16.7°F-8.5°C 68% Calm Calm -- 30.80 in1043.0 mb 0.00 in0.0 mm 0.00 in0.0 mm 0.00 in0.0 mm
10:05 PM 25.7°F-3.5°C 16.5°F-8.6°C 68% Calm Calm -- 30.80 in1043.0 mb 0.00 in0.0 mm 0.00 in0.0 mm 0.00 in0.0 mm
10:10 PM 25.5°F-3.6°C 16.7°F-8.5°C 69% Calm Calm -- 30.79 in1042.7 mb 0.00 in0.0 mm 0.00 in0.0 mm 0.00 in0.0 mm
10:15 PM 25.3°F-3.7°C 16.9°F-8.4°C 70% Calm Calm -- 30.79 in1042.7 mb 0.00 in0.0 mm 0.00 in0.0 mm 0.00 in0.0 mm
10:20 PM 25.3°F-3.7°C 16.9°F-8.4°C 70% Calm Calm -- 30.79 in1042.7 mb 0.00 in0.0 mm 0.00 in0.0 mm 0.00 in0.0 mm
10:25 PM 25.5°F-3.6°C 17.2°F-8.2°C 70% Calm Calm 1.0 mph1.6 kmh 30.79 in1042.7 mb 0.00 in0.0 mm 0.00 in0.0 mm 0.00 in0.0 mm
10:30 PM 25.5°F-3.6°C 17.2°F-8.2°C 70% Calm Calm 1.0 mph1.6 kmh 30.80 in1043.0 mb 0.00 in0.0 mm 0.00 in0.0 mm 0.00 in0.0 mm
10:35 PM 25.3°F-3.7°C 17.2°F-8.2°C 71% Calm Calm -- 30.80 in1043.0 mb 0.00 in0.0 mm 0.00 in0.0 mm 0.00 in0.0 mm
10:40 PM 25.2°F-3.8°C 17.1°F-8.3°C 71% Calm Calm -- 30.80 in1043.0 mb 0.00 in0.0 mm 0.00 in0.0 mm 0.00 in0.0 mm
10:45 PM 25.2°F-3.8°C 17.1°F-8.3°C 71% Calm Calm -- 30.80 in1043.0 mb 0.00 in0.0 mm 0.00 in0.0 mm 0.00 in0.0 mm
10:50 PM 25.0°F-3.9°C 16.9°F-8.4°C 71% Calm Calm -- 30.80 in1043.0 mb 0.00 in0.0 mm 0.00 in0.0 mm 0.00 in0.0 mm
10:55 PM 25.0°F-3.9°C 16.9°F-8.4°C 71% Calm Calm -- 30.80 in1043.0 mb 0.00 in0.0 mm 0.00 in0.0 mm 0.00 in0.0 mm
11:00 PM 25.0°F-3.9°C 17.2°F-8.2°C 72% Calm Calm -- 30.80 in1043.0 mb 0.00 in0.0 mm 0.00 in0.0 mm 0.00 in0.0 mm
11:10 PM 24.8°F-4.0°C 17.1°F-8.3°C 72% Calm Calm -- 30.80 in1043.0 mb 0.00 in0.0 mm 0.00 in0.0 mm 0.00 in0.0 mm
11:15 PM 24.6°F-4.1°C 16.9°F-8.4°C 72% Calm Calm -- 30.80 in1043.0 mb 0.00 in0.0 mm 0.00 in0.0 mm 0.00 in0.0 mm
11:20 PM 24.6°F-4.1°C 17.2°F-8.2°C 73% Calm Calm -- 30.80 in1043.0 mb 0.00 in0.0 mm 0.00 in0.0 mm 0.00 in0.0 mm
11:25 PM 24.6°F-4.1°C 17.6°F-8.0°C 74% Calm Calm -- 30.80 in1043.0 mb 0.00 in0.0 mm 0.00 in0.0 mm 0.00 in0.0 mm
11:30 PM 24.6°F-4.1°C 17.2°F-8.2°C 73% Calm Calm -- 30.80 in1043.0 mb 0.00 in0.0 mm 0.00 in0.0 mm 0.00 in0.0 mm
11:35 PM 24.4°F-4.2°C 17.1°F-8.3°C 73% Calm Calm -- 30.80 in1043.0 mb 0.00 in0.0 mm 0.00 in0.0 mm 0.00 in0.0 mm
11:40 PM 24.4°F-4.2°C 17.2°F-8.2°C 74% Calm Calm -- 30.80 in1043.0 mb 0.00 in0.0 mm 0.00 in0.0 mm 0.00 in0.0 mm
11:45 PM 24.3°F-4.3°C 17.6°F-8.0°C 75% Calm Calm -- 30.80 in1043.0 mb 0.00 in0.0 mm 0.00 in0.0 mm 0.00 in0.0 mm
11:50 PM 24.1°F-4.4°C 17.2°F-8.2°C 75% Calm Calm -- 30.80 in1043.0 mb 0.00 in0.0 mm 0.00 in0.0 mm 0.00 in0.0 mm
11:55 PM 24.1°F-4.4°C 17.2°F-8.2°C 75% Calm Calm -- 30.80 in1043.0 mb 0.00 in0.0 mm 0.00 in0.0 mm 0.00 in0.0 mm